Time;durP1;ratioP1;P1;durP2;ratioP2;P2;SDS_P1;SDS_P2;PMS_P1;PMS_P2;Temp;Humidity;BMP_temperature;BMP_pressure;BME280_temperature;BME280_humidity;BME280_pressure;Samples;Min_cycle;Max_cycle;Signal;HPM_P1;HPM_P2
2022/03/27 00:01:09;;;;;;;17.93;7.07;;;3.90;77.00;;;;;;5046666;28;20201;-66
2022/03/27 00:03:34;;;;;;;19.00;7.07;;;3.90;77.20;;;;;;5045771;28;20174;-66
2022/03/27 00:06:00;;;;;;;18.10;7.30;;;3.90;78.00;;;;;;5046021;28;20193;-66
2022/03/27 00:08:27;;;;;;;16.60;7.47;;;3.90;77.50;;;;;;5045442;28;20196;-66
2022/03/27 00:13:37;;;;;;;15.93;6.53;;;3.80;77.80;;;;;;5046067;28;20518;-66
2022/03/27 00:16:03;;;;;;;19.80;7.40;;;3.80;78.00;;;;;;5046312;28;20558;-66
2022/03/27 00:18:28;;;;;;;22.10;6.90;;;3.70;77.80;;;;;;5045752;28;20277;-66
2022/03/27 00:20:54;;;;;;;15.70;7.43;;;3.70;78.10;;;;;;5046101;28;20638;-66
2022/03/27 00:23:19;;;;;;;12.77;5.70;;;3.60;78.40;;;;;;5046009;28;20289;-66
2022/03/27 00:25:45;;;;;;;17.07;5.80;;;3.60;78.30;;;;;;5044688;28;20500;-66
2022/03/27 00:28:12;;;;;;;14.23;6.87;;;3.60;78.10;;;;;;5045347;28;20193;-66
2022/03/27 00:30:38;;;;;;;14.63;5.80;;;3.50;78.50;;;;;;5046144;28;20212;-66
2022/03/27 00:33:04;;;;;;;17.80;6.93;;;3.50;78.60;;;;;;5045932;28;20450;-66
2022/03/27 00:35:31;;;;;;;15.73;7.73;;;3.40;78.70;;;;;;5045663;28;20459;-66
2022/03/27 00:37:56;;;;;;;24.00;6.27;;;3.40;79.20;;;;;;5045484;28;20904;-66
2022/03/27 00:40:22;;;;;;;13.27;6.50;;;3.40;78.60;;;;;;5031365;28;20798;-66
2022/03/27 00:42:48;;;;;;;17.13;7.40;;;3.40;79.10;;;;;;5045656;28;20213;-66
2022/03/27 00:45:14;;;;;;;13.67;6.03;;;3.40;79.50;;;;;;5045197;28;20654;-66
2022/03/27 00:47:39;;;;;;;13.17;7.13;;;3.40;78.80;;;;;;5047988;28;20468;-66
2022/03/27 00:50:06;;;;;;;13.90;6.20;;;3.40;79.40;;;;;;5045369;28;20188;-66
2022/03/27 00:52:32;;;;;;;12.23;6.77;;;3.30;79.50;;;;;;5045842;28;20188;-66
2022/03/27 00:54:58;;;;;;;22.50;7.63;;;3.30;79.80;;;;;;5045861;28;20452;-66
2022/03/27 00:57:24;;;;;;;16.80;6.70;;;3.20;79.70;;;;;;5045550;28;20219;-66
2022/03/27 00:59:49;;;;;;;21.20;7.40;;;3.20;80.10;;;;;;5044639;28;20428;-65
2022/03/27 01:02:15;;;;;;;20.13;8.07;;;3.10;80.30;;;;;;5049030;28;20182;-66
2022/03/27 01:04:45;;;;;;;18.10;6.00;;;3.10;80.30;;;;;;5049314;28;20696;-66
2022/03/27 01:07:20;;;;;;;22.90;6.80;;;3.20;80.00;;;;;;5049215;28;20280;-66
2022/03/27 01:09:46;;;;;;;14.77;7.90;;;3.00;80.50;;;;;;5054178;28;20534;-66
2022/03/27 01:12:19;;;;;;;18.80;7.03;;;3.00;81.60;;;;;;5049809;28;20432;-66
2022/03/27 01:14:45;;;;;;;21.97;8.53;;;3.00;81.10;;;;;;5049292;28;20451;-66
2022/03/27 01:17:16;;;;;;;18.43;7.47;;;3.00;80.30;;;;;;5049090;28;20466;-66
2022/03/27 01:19:51;;;;;;;18.40;7.33;;;3.00;80.30;;;;;;5048816;28;20824;-65
2022/03/27 01:22:18;;;;;;;15.73;7.17;;;2.90;80.80;;;;;;5048988;28;20493;-66
2022/03/27 01:24:44;;;;;;;12.50;6.33;;;2.90;81.30;;;;;;5048615;28;20799;-66
2022/03/27 01:27:11;;;;;;;19.87;8.90;;;2.90;81.50;;;;;;5049359;28;20454;-66
2022/03/27 01:29:37;;;;;;;17.27;7.30;;;2.80;81.50;;;;;;5048534;28;20420;-66
2022/03/27 01:32:04;;;;;;;24.13;7.87;;;2.80;81.50;;;;;;5049185;28;20440;-67
2022/03/27 01:34:31;;;;;;;18.07;7.37;;;2.80;81.80;;;;;;5048793;28;21771;-66
2022/03/27 01:37:10;;;;;;;21.57;7.27;;;2.80;81.90;;;;;;5048544;28;20426;-66
2022/03/27 01:39:37;;;;;;;22.73;9.60;;;2.70;81.30;;;;;;5048355;28;20431;-66
2022/03/27 01:42:04;;;;;;;35.17;9.10;;;2.60;81.60;;;;;;5049113;28;20441;-66
2022/03/27 01:44:29;;;;;;;19.37;8.53;;;2.50;82.20;;;;;;5048646;28;20412;-66
2022/03/27 01:46:57;;;;;;;18.40;7.93;;;2.50;82.10;;;;;;5048342;28;20424;-66
2022/03/27 01:49:24;;;;;;;18.90;9.40;;;2.60;83.00;;;;;;5060188;28;20192;-66
2022/03/27 01:51:50;;;;;;;12.87;6.90;;;2.60;82.40;;;;;;5049864;28;20819;-66
2022/03/27 01:54:19;;;;;;;43.97;9.17;;;2.50;82.30;;;;;;5048070;28;21003;-66
2022/03/27 01:56:45;;;;;;;18.07;8.17;;;2.40;82.90;;;;;;5049304;28;20263;-66
2022/03/27 01:59:11;;;;;;;15.43;8.50;;;2.50;83.10;;;;;;5048080;28;20420;-66
2022/03/27 02:01:37;;;;;;;26.30;8.60;;;2.50;83.10;;;;;;5049000;28;20462;-65
2022/03/27 02:04:04;;;;;;;17.80;7.97;;;2.50;83.00;;;;;;5048532;28;20577;-65
2022/03/27 02:06:31;;;;;;;27.70;9.00;;;2.50;83.30;;;;;;5048658;28;20547;-65
2022/03/27 02:08:59;;;;;;;17.00;7.40;;;2.40;82.90;;;;;;5047595;28;20558;-65
2022/03/27 02:11:24;;;;;;;20.97;7.93;;;2.50;82.60;;;;;;5048439;28;20527;-65
2022/03/27 02:13:51;;;;;;;15.63;8.10;;;2.50;83.00;;;;;;5048083;28;20436;-65
2022/03/27 02:16:17;;;;;;;22.30;8.93;;;2.40;83.00;;;;;;5048433;28;20324;-65
2022/03/27 02:18:42;;;;;;;21.70;7.37;;;2.30;83.40;;;;;;5047411;28;20885;-65
2022/03/27 02:21:08;;;;;;;15.27;7.67;;;2.30;83.60;;;;;;5047956;28;20428;-65
2022/03/27 02:23:34;;;;;;;18.47;6.87;;;2.40;83.00;;;;;;5047675;28;20217;-65
2022/03/27 02:26:00;;;;;;;24.33;6.27;;;2.30;81.90;;;;;;5048545;28;20186;-65
2022/03/27 02:28:26;;;;;;;17.10;7.87;;;2.20;81.60;;;;;;5047258;28;20201;-65
2022/03/27 02:30:52;;;;;;;32.73;6.93;;;2.10;83.30;;;;;;5042419;28;20212;-65
2022/03/27 02:33:18;;;;;;;16.93;6.50;;;2.10;83.80;;;;;;5047655;28;20448;-65
2022/03/27 02:35:43;;;;;;;15.20;7.73;;;2.10;84.00;;;;;;5047546;28;20532;-65
2022/03/27 02:38:10;;;;;;;18.93;6.40;;;2.10;83.80;;;;;;5047056;28;20478;-65
2022/03/27 02:40:41;;;;;;;14.03;5.20;;;2.10;83.90;;;;;;5047456;28;20188;-65
2022/03/27 02:43:07;;;;;;;15.83;5.53;;;2.10;84.10;;;;;;5047457;28;20423;-65
2022/03/27 02:45:33;;;;;;;19.23;6.70;;;2.10;84.20;;;;;;5046371;28;20783;-66
2022/03/27 02:47:59;;;;;;;17.50;7.20;;;2.10;83.70;;;;;;5047550;28;20730;-65
2022/03/27 02:50:26;;;;;;;14.37;6.10;;;2.10;84.10;;;;;;5047196;28;20427;-65
2022/03/27 02:52:53;;;;;;;30.33;6.70;;;2.00;84.40;;;;;;5047204;28;20435;-65
2022/03/27 02:55:22;;;;;;;14.80;6.20;;;2.00;84.20;;;;;;5047431;28;21377;-65
2022/03/27 02:57:49;;;;;;;21.33;7.20;;;2.00;84.00;;;;;;5053340;28;20476;-65
2022/03/27 03:00:15;;;;;;;12.57;5.17;;;1.90;84.90;;;;;;5047628;28;20446;-65
2022/03/27 03:02:41;;;;;;;16.00;6.70;;;1.80;84.80;;;;;;5047392;28;20917;-65
2022/03/27 03:05:08;;;;;;;18.80;5.63;;;1.80;85.20;;;;;;5047519;28;20514;-65
2022/03/27 03:07:34;;;;;;;14.73;5.47;;;1.80;84.80;;;;;;5046500;28;20574;-65
2022/03/27 03:10:02;;;;;;;22.67;6.53;;;1.70;84.40;;;;;;5046575;28;20733;-65
2022/03/27 03:12:28;;;;;;;11.13;4.90;;;1.70;84.80;;;;;;5046961;28;20186;-65
2022/03/27 03:14:56;;;;;;;16.90;7.73;;;1.60;85.60;;;;;;5046855;28;20463;-65
2022/03/27 03:17:22;;;;;;;17.43;7.37;;;1.70;86.30;;;;;;5047405;28;20517;-65
2022/03/27 03:19:48;;;;;;;15.47;5.80;;;1.70;86.30;;;;;;5046721;28;20481;-65
2022/03/27 03:22:14;;;;;;;28.40;7.50;;;1.60;86.40;;;;;;5046684;28;20784;-65
2022/03/27 03:24:40;;;;;;;16.13;6.07;;;1.70;86.80;;;;;;5046052;28;20208;-65
2022/03/27 03:27:06;;;;;;;14.47;5.63;;;1.70;86.30;;;;;;5047273;28;20432;-65
2022/03/27 03:29:31;;;;;;;14.90;6.10;;;1.70;86.50;;;;;;5046416;28;20537;-65
2022/03/27 03:31:57;;;;;;;15.10;5.77;;;1.80;86.10;;;;;;5046864;28;20702;-65
2022/03/27 03:34:23;;;;;;;16.07;5.50;;;1.70;86.20;;;;;;5046706;28;20186;-65
2022/03/27 03:36:49;;;;;;;21.63;6.40;;;1.70;86.00;;;;;;5046295;28;20661;-65
2022/03/27 03:39:14;;;;;;;16.53;6.10;;;1.70;86.00;;;;;;5045227;28;20178;-65
2022/03/27 03:41:40;;;;;;;12.20;6.03;;;1.70;86.50;;;;;;5046796;28;20424;-65
2022/03/27 03:44:07;;;;;;;16.13;4.93;;;1.70;86.50;;;;;;5046678;28;20181;-65
2022/03/27 03:46:33;;;;;;;19.23;6.00;;;1.70;86.70;;;;;;5045777;28;20181;-65
2022/03/27 03:48:59;;;;;;;11.30;5.07;;;1.70;86.50;;;;;;5046334;28;20424;-64
2022/03/27 03:51:24;;;;;;;13.70;6.60;;;1.60;86.40;;;;;;5046248;28;20440;-64
2022/03/27 03:53:50;;;;;;;13.90;6.00;;;1.50;86.70;;;;;;5045586;28;20190;-64
2022/03/27 03:56:15;;;;;;;10.73;5.50;;;1.50;87.00;;;;;;5046795;28;20217;-67
2022/03/27 03:58:41;;;;;;;15.53;5.97;;;1.40;87.30;;;;;;5045962;28;20497;-65
2022/03/27 04:01:07;;;;;;;19.13;6.60;;;1.40;88.30;;;;;;5045821;28;20256;-65
2022/03/27 04:03:33;;;;;;;19.73;7.00;;;1.40;87.90;;;;;;5046348;28;20197;-64
2022/03/27 04:05:59;;;;;;;14.93;6.33;;;1.50;87.90;;;;;;5045983;28;20370;-65
2022/03/27 04:08:25;;;;;;;17.40;6.33;;;1.50;87.90;;;;;;5045503;28;20308;-64
2022/03/27 04:10:51;;;;;;;14.57;5.53;;;1.40;87.90;;;;;;5046205;28;20550;-65
2022/03/27 04:13:16;;;;;;;13.30;5.10;;;1.50;87.90;;;;;;5045703;28;20435;-65
2022/03/27 04:15:42;;;;;;;18.93;6.27;;;1.50;87.40;;;;;;5046144;28;20209;-65
2022/03/27 04:18:09;;;;;;;15.60;6.50;;;1.40;87.80;;;;;;5045878;28;20209;-65
2022/03/27 04:20:34;;;;;;;22.60;6.50;;;1.40;88.00;;;;;;5045364;28;20688;-65
2022/03/27 04:23:01;;;;;;;16.67;6.23;;;1.30;88.20;;;;;;5045587;28;20416;-65
2022/03/27 04:25:27;;;;;;;16.10;6.50;;;1.40;88.80;;;;;;5045997;28;20196;-65
2022/03/27 04:27:52;;;;;;;21.10;6.67;;;1.30;88.20;;;;;;5045788;28;20428;-65
2022/03/27 04:30:18;;;;;;;34.33;7.00;;;1.20;87.90;;;;;;5045504;28;20439;-65
2022/03/27 04:32:44;;;;;;;14.17;6.43;;;1.20;87.90;;;;;;5045732;28;20193;-65
2022/03/27 04:35:10;;;;;;;18.90;6.40;;;1.10;88.80;;;;;;5046047;28;20565;-64
2022/03/27 04:37:40;;;;;;;20.33;6.50;;;1.20;89.00;;;;;;5043798;28;20232;-65
2022/03/27 04:40:06;;;;;;;23.33;6.70;;;1.20;88.90;;;;;;5043229;28;20852;-65
2022/03/27 04:42:32;;;;;;;12.40;5.90;;;1.20;88.90;;;;;;5044694;28;20459;-65
2022/03/27 04:44:58;;;;;;;26.93;6.47;;;1.20;88.10;;;;;;5049020;28;20427;-65
2022/03/27 04:47:24;;;;;;;13.07;6.50;;;1.10;88.30;;;;;;5049961;28;20189;-65
2022/03/27 04:49:50;;;;;;;17.60;6.00;;;1.10;88.80;;;;;;5050239;28;20190;-65
2022/03/27 04:52:16;;;;;;;17.83;6.83;;;1.20;88.70;;;;;;5049615;28;20420;-65
2022/03/27 04:54:42;;;;;;;15.40;6.03;;;1.20;88.50;;;;;;5049206;28;20474;-65
2022/03/27 04:57:08;;;;;;;19.20;6.60;;;1.10;89.00;;;;;;5049889;28;20198;-65
2022/03/27 04:59:33;;;;;;;17.57;6.67;;;1.10;89.10;;;;;;5049110;28;20217;-64
2022/03/27 05:02:01;;;;;;;24.40;6.80;;;1.10;89.10;;;;;;5049410;28;20268;-65
2022/03/27 05:04:27;;;;;;;15.87;7.50;;;1.10;89.10;;;;;;5049451;28;20235;-65
2022/03/27 05:06:53;;;;;;;23.40;8.10;;;1.00;89.20;;;;;;5049145;28;20788;-64
2022/03/27 05:09:19;;;;;;;15.33;6.10;;;1.00;89.10;;;;;;5048607;28;20682;-65
2022/03/27 05:11:45;;;;;;;15.73;5.10;;;1.00;89.20;;;;;;5049349;28;20528;-67
2022/03/27 05:14:11;;;;;;;17.07;6.37;;;0.90;88.80;;;;;;5048878;28;20431;-65
2022/03/27 05:16:37;;;;;;;18.33;5.07;;;0.90;89.10;;;;;;5049434;28;20466;-65
2022/03/27 05:19:04;;;;;;;18.10;7.20;;;1.00;89.40;;;;;;5055484;28;20474;-65
2022/03/27 05:21:31;;;;;;;22.53;6.20;;;1.00;88.80;;;;;;5048967;28;20924;-65
2022/03/27 05:23:56;;;;;;;19.00;6.63;;;1.00;88.90;;;;;;5048981;28;20424;-65
2022/03/27 05:26:22;;;;;;;14.17;5.47;;;1.00;88.60;;;;;;5048872;28;20434;-65
2022/03/27 05:28:47;;;;;;;15.10;5.47;;;1.00;88.80;;;;;;5048417;28;20396;-65
2022/03/27 05:31:13;;;;;;;25.87;7.10;;;0.90;89.50;;;;;;5048933;28;20211;-64
2022/03/27 05:33:39;;;;;;;16.17;6.30;;;0.90;89.90;;;;;;5049003;28;20189;-65
2022/03/27 05:36:10;;;;;;;19.03;5.93;;;0.90;90.20;;;;;;5048694;28;20218;-64
2022/03/27 05:38:40;;;;;;;14.23;6.67;;;1.00;90.00;;;;;;5042319;28;20413;-65
2022/03/27 05:41:11;;;;;;;18.37;7.73;;;1.00;90.10;;;;;;5048777;28;20449;-65
2022/03/27 05:43:37;;;;;;;13.50;5.50;;;1.10;90.10;;;;;;5048950;28;20819;-65
2022/03/27 05:46:03;;;;;;;15.50;6.27;;;1.10;90.10;;;;;;5047777;28;20428;-65
2022/03/27 05:48:29;;;;;;;19.13;7.40;;;1.10;90.40;;;;;;5047860;28;20178;-64
2022/03/27 05:50:54;;;;;;;15.60;6.80;;;1.20;90.20;;;;;;5048427;28;20466;-65
2022/03/27 05:53:20;;;;;;;14.03;6.27;;;1.20;90.00;;;;;;5047604;28;20189;-65
2022/03/27 05:55:47;;;;;;;17.30;5.90;;;1.20;90.10;;;;;;5048388;28;20646;-67
2022/03/27 05:58:13;;;;;;;19.40;6.07;;;1.20;90.00;;;;;;5048316;28;20239;-65
2022/03/27 06:00:40;;;;;;;12.20;6.10;;;1.20;90.30;;;;;;5048398;28;20440;-65
2022/03/27 06:03:05;;;;;;;14.07;6.03;;;1.20;90.30;;;;;;5048326;28;20946;-65
2022/03/27 06:05:31;;;;;;;14.17;5.10;;;1.30;90.50;;;;;;5048485;28;20428;-65
2022/03/27 06:07:58;;;;;;;11.60;6.37;;;1.30;90.40;;;;;;5047625;28;20268;-65
2022/03/27 06:10:31;;;;;;;25.60;7.33;;;1.40;90.30;;;;;;5048318;28;20208;-65
2022/03/27 06:12:57;;;;;;;20.37;6.40;;;1.40;90.30;;;;;;5048204;28;20901;-65
2022/03/27 06:15:23;;;;;;;13.07;6.70;;;1.50;90.80;;;;;;5048539;28;20495;-65
2022/03/27 06:17:51;;;;;;;12.60;6.57;;;1.60;90.50;;;;;;5048184;28;20408;-65
2022/03/27 06:20:23;;;;;;;11.13;6.40;;;1.70;90.50;;;;;;5046242;28;20432;-65
2022/03/27 06:22:49;;;;;;;20.47;7.07;;;1.80;90.30;;;;;;5046449;28;20851;-65
2022/03/27 06:25:17;;;;;;;19.17;6.87;;;1.80;90.20;;;;;;5048802;28;20431;-65
2022/03/27 06:27:44;;;;;;;19.60;6.50;;;1.90;90.10;;;;;;5048260;28;20436;-65
2022/03/27 06:30:12;;;;;;;20.30;6.43;;;2.00;90.20;;;;;;5045585;28;20624;-65
2022/03/27 06:32:37;;;;;;;17.60;7.40;;;2.10;90.00;;;;;;5048192;28;20467;-65
2022/03/27 06:35:05;;;;;;;27.07;8.20;;;2.20;90.10;;;;;;5048223;28;20456;-66
2022/03/27 06:37:31;;;;;;;17.40;7.07;;;2.40;90.20;;;;;;5047924;28;20490;-65
2022/03/27 06:39:57;;;;;;;20.03;6.40;;;2.50;90.30;;;;;;5047759;28;20892;-65
2022/03/27 06:42:25;;;;;;;13.07;7.50;;;2.80;90.20;;;;;;5046259;28;20423;-65
2022/03/27 06:44:52;;;;;;;16.33;6.53;;;3.00;90.00;;;;;;5046559;28;20182;-65
2022/03/27 06:47:18;;;;;;;17.93;6.80;;;3.30;89.50;;;;;;5046989;28;20420;-66
2022/03/27 06:49:44;;;;;;;19.80;6.90;;;3.50;88.60;;;;;;5047215;28;20764;-65
2022/03/27 06:52:11;;;;;;;45.40;7.90;;;3.70;87.10;;;;;;5047487;28;20420;-65
2022/03/27 06:54:37;;;;;;;20.60;8.33;;;3.90;86.50;;;;;;5046978;28;20245;-66
2022/03/27 06:57:03;;;;;;;22.13;7.33;;;4.10;85.60;;;;;;5047540;28;20843;-66
2022/03/27 07:03:01;;;;;;;15.27;7.00;;;4.30;84.90;;;;;;5046425;28;20413;-66
2022/03/27 07:05:03;;;;;;;17.60;6.57;;;4.70;84.30;;;;;;5025072;28;20722;-66
2022/03/27 07:07:29;;;;;;;22.27;6.70;;;4.90;84.30;;;;;;5046732;28;20503;-66
2022/03/27 07:09:54;;;;;;;16.10;6.17;;;5.20;84.50;;;;;;5046803;28;20974;-65
2022/03/27 07:12:20;;;;;;;17.73;6.80;;;5.40;84.00;;;;;;5046803;28;20425;-66
2022/03/27 07:14:46;;;;;;;15.13;6.00;;;5.70;84.20;;;;;;5046826;28;20289;-66
2022/03/27 07:17:15;;;;;;;14.30;5.83;;;6.10;83.90;;;;;;5047082;28;20208;-67
2022/03/27 07:19:41;;;;;;;23.03;6.27;;;6.50;81.60;;;;;;5046341;28;20534;-66
2022/03/27 07:22:07;;;;;;;25.73;6.80;;;7.00;80.30;;;;;;5047314;28;20429;-66
2022/03/27 07:24:32;;;;;;;21.73;7.10;;;8.00;78.90;;;;;;5046683;28;20783;-66
2022/03/27 07:26:58;;;;;;;28.93;7.60;;;9.00;75.90;;;;;;5047028;28;20675;-66
2022/03/27 07:29:24;;;;;;;16.70;7.57;;;9.90;72.50;;;;;;5046115;28;20209;-67
2022/03/27 07:31:49;;;;;;;25.03;6.07;;;10.40;69.40;;;;;;5046533;28;20197;-67
2022/03/27 07:34:16;;;;;;;22.33;7.93;;;11.00;66.50;;;;;;5046364;28;20182;-67
2022/03/27 07:36:42;;;;;;;27.93;7.27;;;11.40;64.80;;;;;;5046640;28;20296;-67
2022/03/27 07:39:11;;;;;;;18.53;6.53;;;11.70;64.40;;;;;;5045619;28;20420;-67
2022/03/27 07:41:37;;;;;;;19.87;7.20;;;12.40;64.30;;;;;;5046997;28;20765;-67
2022/03/27 07:44:03;;;;;;;16.03;5.93;;;13.90;60.80;;;;;;5046426;28;20893;-67
2022/03/27 07:46:30;;;;;;;23.97;7.10;;;14.90;58.50;;;;;;5046000;28;20544;-67
2022/03/27 07:48:57;;;;;;;19.07;8.20;;;15.90;57.40;;;;;;5045968;28;20205;-67
2022/03/27 07:51:23;;;;;;;15.07;6.73;;;17.20;54.40;;;;;;5046069;28;20900;-67
2022/03/27 07:53:49;;;;;;;22.90;9.00;;;17.30;52.60;;;;;;5046227;28;20435;-68
2022/03/27 07:56:15;;;;;;;16.37;7.80;;;17.40;53.50;;;;;;5046631;28;20205;-68
2022/03/27 07:58:40;;;;;;;15.40;7.27;;;18.10;52.00;;;;;;5045653;28;20611;-68
2022/03/27 08:01:06;;;;;;;20.80;7.60;;;18.30;51.50;;;;;;5046407;28;20905;-68
2022/03/27 08:03:34;;;;;;;20.63;6.70;;;17.70;52.70;;;;;;5046107;28;20264;-68
2022/03/27 08:06:00;;;;;;;17.17;7.10;;;18.90;51.80;;;;;;5046014;28;20284;-67
2022/03/27 08:08:26;;;;;;;19.57;7.23;;;18.70;51.10;;;;;;5045197;28;20823;-68
2022/03/27 08:10:52;;;;;;;19.60;7.23;;;19.30;50.00;;;;;;5046401;28;20933;-68
2022/03/27 08:13:17;;;;;;;23.23;6.63;;;19.20;50.40;;;;;;5046076;28;20680;-68
2022/03/27 08:15:43;;;;;;;23.43;9.07;;;18.70;50.40;;;;;;5046092;28;20244;-68
2022/03/27 08:18:13;;;;;;;15.13;6.20;;;19.00;50.60;;;;;;5045738;28;20622;-68
2022/03/27 08:20:40;;;;;;;19.40;7.60;;;19.30;49.60;;;;;;5050207;28;20681;-68
2022/03/27 08:23:07;;;;;;;12.90;6.03;;;19.20;49.90;;;;;;5040411;28;20435;-68
2022/03/27 08:28:21;;;;;;;19.40;8.10;;;19.40;49.60;;;;;;5045765;28;20422;-68
2022/03/27 08:30:48;;;;;;;22.77;8.43;;;18.60;50.80;;;;;;5045670;28;20420;-68
2022/03/27 08:33:15;;;;;;;14.63;7.37;;;18.70;50.40;;;;;;5045900;28;20473;-68
2022/03/27 08:35:42;;;;;;;18.40;7.57;;;19.30;50.20;;;;;;5045785;28;20514;-68
2022/03/27 08:38:12;;;;;;;16.57;6.27;;;19.00;49.90;;;;;;5045593;28;20463;-68
2022/03/27 08:40:40;;;;;;;18.53;7.00;;;19.10;50.00;;;;;;5039714;28;20766;-69
2022/03/27 08:43:11;;;;;;;12.83;6.33;;;18.60;51.10;;;;;;5038871;28;20432;-68
2022/03/27 08:45:36;;;;;;;21.60;8.20;;;19.20;50.20;;;;;;5044670;28;20424;-68
2022/03/27 08:48:04;;;;;;;14.70;6.77;;;19.40;49.40;;;;;;5045826;28;20423;-68
2022/03/27 08:50:37;;;;;;;27.77;8.20;;;19.40;49.90;;;;;;5039993;28;20189;-68
2022/03/27 08:53:05;;;;;;;18.60;7.37;;;19.10;49.30;;;;;;5039506;28;20416;-68
2022/03/27 08:55:50;;;;;;;14.40;6.00;;;18.90;49.60;;;;;;5045487;28;20563;-68
2022/03/27 08:58:15;;;;;;;15.43;8.40;;;18.70;50.10;;;;;;5045669;28;20431;-68
2022/03/27 09:00:41;;;;;;;20.80;7.37;;;18.60;51.30;;;;;;5045648;28;20647;-68
2022/03/27 09:03:08;;;;;;;16.17;6.90;;;18.90;51.00;;;;;;5045929;28;20191;-68
2022/03/27 09:05:38;;;;;;;34.93;8.57;;;19.40;49.90;;;;;;5045859;28;20428;-68
2022/03/27 09:08:09;;;;;;;15.97;6.87;;;19.60;49.40;;;;;;5044732;28;20435;-68
2022/03/27 09:10:36;;;;;;;15.00;6.60;;;19.50;49.90;;;;;;5045313;28;20461;-68
2022/03/27 09:13:03;;;;;;;16.03;7.40;;;19.60;49.40;;;;;;5045114;28;20558;-68
2022/03/27 09:15:29;;;;;;;16.83;6.77;;;19.20;49.50;;;;;;5043737;28;20465;-68
2022/03/27 09:17:56;;;;;;;18.00;7.23;;;19.00;50.80;;;;;;5044583;28;20507;-68
2022/03/27 09:20:37;;;;;;;24.93;7.50;;;18.20;51.00;;;;;;5042560;28;20420;-68
2022/03/27 09:23:27;;;;;;;15.00;6.00;;;18.50;51.30;;;;;;5046968;28;20425;-68
2022/03/27 09:25:59;;;;;;;19.00;8.13;;;18.20;52.50;;;;;;5041222;28;20774;-68
2022/03/27 09:28:37;;;;;;;15.77;6.30;;;18.80;50.80;;;;;;5048897;28;20455;-68
2022/03/27 09:31:16;;;;;;;13.77;5.63;;;18.80;51.10;;;;;;5048679;28;20719;-68
2022/03/27 09:33:52;;;;;;;15.80;7.23;;;19.00;50.20;;;;;;5049359;28;20462;-68
2022/03/27 09:36:27;;;;;;;19.00;8.70;;;18.70;50.70;;;;;;5046299;28;20481;-68
2022/03/27 09:39:03;;;;;;;17.40;6.77;;;18.10;51.60;;;;;;5047458;28;20416;-68
2022/03/27 09:41:36;;;;;;;21.63;5.97;;;17.60;51.40;;;;;;5043325;28;20423;-67
2022/03/27 09:44:13;;;;;;;12.83;6.10;;;17.80;52.00;;;;;;5048903;28;20915;-68
2022/03/27 09:46:54;;;;;;;22.10;5.80;;;17.60;51.90;;;;;;5042687;28;20778;-67
2022/03/27 09:49:31;;;;;;;15.43;6.87;;;17.60;51.10;;;;;;5048479;28;20420;-67
2022/03/27 09:52:08;;;;;;;37.10;5.77;;;17.70;50.90;;;;;;5048766;28;20427;-69
2022/03/27 09:54:58;;;;;;;16.30;6.13;;;17.60;50.70;;;;;;5047636;28;20507;-69
2022/03/27 09:57:33;;;;;;;27.27;8.07;;;17.20;50.20;;;;;;5048733;28;20782;-69
2022/03/27 10:00:15;;;;;;;25.40;6.63;;;16.70;52.00;;;;;;5047953;28;20516;-68
2022/03/27 10:02:46;;;;;;;10.63;5.53;;;16.90;52.20;;;;;;5048150;28;20425;-69
2022/03/27 10:05:13;;;;;;;16.23;6.50;;;16.60;52.50;;;;;;5046782;28;20424;-69
2022/03/27 10:07:49;;;;;;;13.00;5.67;;;16.70;52.20;;;;;;5047737;28;20637;-69
2022/03/27 10:10:20;;;;;;;12.40;5.80;;;16.80;50.90;;;;;;5048055;28;20505;-69
2022/03/27 10:12:48;;;;;;;15.77;6.50;;;16.60;51.00;;;;;;5048717;28;20525;-67
2022/03/27 10:15:15;;;;;;;14.53;6.50;;;16.50;52.80;;;;;;5048673;28;20471;-67
2022/03/27 10:17:46;;;;;;;16.77;6.37;;;16.70;52.20;;;;;;5048253;28;20431;-67
2022/03/27 10:20:13;;;;;;;24.40;6.70;;;16.60;51.30;;;;;;5055257;28;20699;-67
2022/03/27 10:22:52;;;;;;;16.23;6.90;;;16.50;53.40;;;;;;5048130;28;20420;-67
2022/03/27 10:25:19;;;;;;;17.23;6.60;;;16.50;52.00;;;;;;5048205;28;20404;-67
2022/03/27 10:27:46;;;;;;;21.23;5.47;;;16.40;52.70;;;;;;5048495;28;20510;-67
2022/03/27 10:30:14;;;;;;;28.80;6.17;;;16.50;53.10;;;;;;5047737;28;20438;-67
2022/03/27 10:32:42;;;;;;;19.77;6.40;;;16.50;52.80;;;;;;5041829;28;20455;-67
2022/03/27 10:35:29;;;;;;;15.80;5.80;;;16.80;52.70;;;;;;5046947;28;20452;-68
2022/03/27 10:38:17;;;;;;;21.83;6.27;;;16.90;51.10;;;;;;5045286;28;20417;-67
2022/03/27 10:40:51;;;;;;;16.73;6.13;;;17.00;50.70;;;;;;5048189;28;20471;-67
2022/03/27 10:43:34;;;;;;;19.93;5.43;;;17.00;50.20;;;;;;5047489;28;20412;-68
2022/03/27 10:46:19;;;;;;;19.87;6.87;;;16.80;50.80;;;;;;5047111;28;20416;-68
2022/03/27 10:48:47;;;;;;;13.80;5.73;;;16.90;51.00;;;;;;5047248;28;20841;-67
2022/03/27 10:51:25;;;;;;;12.80;6.20;;;17.00;53.80;;;;;;5044310;28;20425;-68
2022/03/27 10:54:10;;;;;;;21.83;5.27;;;17.30;51.80;;;;;;5047176;28;20531;-67
2022/03/27 10:56:42;;;;;;;16.20;6.30;;;17.30;51.60;;;;;;5043039;28;20555;-68
2022/03/27 10:59:13;;;;;;;22.80;6.80;;;17.50;50.60;;;;;;5046974;28;20530;-67
2022/03/27 11:01:43;;;;;;;15.17;5.33;;;17.50;50.40;;;;;;5047703;28;20440;-68
2022/03/27 11:04:13;;;;;;;15.43;6.57;;;17.30;49.80;;;;;;5047138;28;20775;-68
2022/03/27 11:06:46;;;;;;;10.80;4.93;;;17.30;50.20;;;;;;5047751;28;20439;-67
2022/03/27 11:09:32;;;;;;;14.27;6.60;;;17.30;48.30;;;;;;5046189;28;20416;-68
2022/03/27 11:11:59;;;;;;;19.63;6.50;;;17.40;49.10;;;;;;5047087;28;20416;-68
2022/03/27 11:15:05;;;;;;;26.90;5.67;;;17.60;49.70;;;;;;5047355;28;20762;-68
2022/03/27 11:17:37;;;;;;;19.60;5.70;;;17.70;50.20;;;;;;5044661;28;20466;-68
2022/03/27 11:20:05;;;;;;;17.80;5.77;;;18.00;49.30;;;;;;5046630;28;20409;-67
2022/03/27 11:22:50;;;;;;;20.40;6.50;;;18.00;48.10;;;;;;5045917;28;20845;-67
2022/03/27 11:25:28;;;;;;;15.87;5.97;;;18.10;47.50;;;;;;5047036;28;20528;-67
2022/03/27 11:28:07;;;;;;;13.60;5.63;;;18.10;47.90;;;;;;5046826;28;20426;-67
2022/03/27 11:30:40;;;;;;;17.93;5.30;;;18.30;47.90;;;;;;5046469;28;20526;-67
2022/03/27 11:33:12;;;;;;;15.40;5.67;;;18.30;46.40;;;;;;5046336;28;20424;-67
2022/03/27 11:35:40;;;;;;;17.70;6.33;;;18.20;46.20;;;;;;5046221;28;20478;-67
2022/03/27 11:38:20;;;;;;;32.73;5.73;;;18.20;47.80;;;;;;5045307;28;20420;-67
2022/03/27 11:40:46;;;;;;;19.33;6.13;;;18.30;47.50;;;;;;5046480;28;20452;-67
2022/03/27 11:43:28;;;;;;;13.60;5.00;;;18.50;47.20;;;;;;5046647;28;20416;-67
2022/03/27 11:45:56;;;;;;;11.50;4.50;;;18.80;45.90;;;;;;5045700;28;20428;-67
2022/03/27 11:48:22;;;;;;;15.60;5.20;;;18.70;45.30;;;;;;5045810;28;20421;-67
2022/03/27 11:50:48;;;;;;;16.03;5.60;;;18.60;45.00;;;;;;5045871;28;20428;-67
2022/03/27 11:53:14;;;;;;;7.87;4.67;;;18.70;44.60;;;;;;5042263;28;20177;-67
2022/03/27 11:55:39;;;;;;;11.37;5.67;;;18.50;43.60;;;;;;5046704;28;20243;-68
2022/03/27 11:58:07;;;;;;;23.43;6.23;;;18.60;43.40;;;;;;5046347;28;20907;-66
2022/03/27 12:00:41;;;;;;;19.23;5.40;;;18.80;44.30;;;;;;5046146;28;20193;-67
2022/03/27 12:03:17;;;;;;;17.73;5.77;;;19.00;44.70;;;;;;5044488;28;20420;-67
2022/03/27 12:05:43;;;;;;;14.80;4.57;;;19.30;44.40;;;;;;5044445;28;20550;-67
2022/03/27 12:08:12;;;;;;;13.10;5.30;;;18.90;43.90;;;;;;5042075;28;20427;-67
2022/03/27 12:10:43;;;;;;;10.20;4.83;;;19.10;43.40;;;;;;5047066;28;20434;-68
2022/03/27 12:13:10;;;;;;;24.73;6.10;;;19.00;44.20;;;;;;5045234;28;20431;-67
2022/03/27 12:15:36;;;;;;;9.63;4.17;;;19.00;43.00;;;;;;5044471;28;20456;-67
2022/03/27 12:18:03;;;;;;;7.80;4.20;;;19.10;42.10;;;;;;5044312;28;20477;-67
2022/03/27 12:20:39;;;;;;;17.93;4.43;;;19.40;41.90;;;;;;5043641;28;20223;-67
2022/03/27 12:23:22;;;;;;;7.70;3.27;;;19.50;41.40;;;;;;5044150;28;20423;-66
2022/03/27 12:29:40;;;;;;;6.17;3.53;;;19.50;38.60;;;;;;4986295;28;20951;-67
2022/03/27 12:32:07;;;;;;;12.77;4.40;;;19.20;42.10;;;;;;5045553;28;20956;-66
2022/03/27 12:34:34;;;;;;;12.03;4.67;;;19.40;42.00;;;;;;5044819;28;20594;-66
2022/03/27 12:37:10;;;;;;;11.70;4.40;;;19.30;39.50;;;;;;5045311;28;21096;-67
2022/03/27 12:39:58;;;;;;;9.80;4.03;;;19.30;39.90;;;;;;5042244;28;20763;-67
2022/03/27 12:42:31;;;;;;;10.37;3.90;;;19.50;40.20;;;;;;5044162;28;20424;-67
2022/03/27 12:45:11;;;;;;;16.53;5.07;;;19.90;37.90;;;;;;5029592;28;20441;-67
2022/03/27 12:48:10;;;;;;;7.90;4.20;;;19.80;37.00;;;;;;5039993;28;20431;-73
2022/03/27 12:50:38;;;;;;;8.27;4.13;;;19.80;37.00;;;;;;5040260;28;20562;-72
2022/03/27 12:53:26;;;;;;;9.87;4.10;;;19.50;38.80;;;;;;5044208;28;20420;-72
2022/03/27 12:55:55;;;;;;;9.70;4.20;;;19.50;38.20;;;;;;5041843;28;20464;-73
2022/03/27 12:58:20;;;;;;;14.03;4.40;;;19.80;35.10;;;;;;5046619;28;20412;-73
2022/03/27 13:01:03;;;;;;;9.40;3.33;;;19.80;36.50;;;;;;5047563;28;20446;-73
2022/03/27 13:03:29;;;;;;;10.93;4.60;;;19.80;38.00;;;;;;5041656;28;20221;-73